createdAt,value
2023-03-10T00:01:13.920Z,97.40
2023-03-10T00:03:42.305Z,98.03
2023-03-10T00:06:14.340Z,92.70
2023-03-10T00:08:43.078Z,91.50
2023-03-10T00:11:11.728Z,91.40
2023-03-10T00:13:39.930Z,91.77
2023-03-10T00:16:09.069Z,92.17
2023-03-10T00:18:37.188Z,92.33
2023-03-10T00:21:05.530Z,90.90
2023-03-10T00:23:37.343Z,88.60
2023-03-10T00:26:05.886Z,86.50
2023-03-10T00:28:33.960Z,85.80
2023-03-10T00:31:03.554Z,90.73
2023-03-10T00:33:32.592Z,87.50
2023-03-10T00:36:08.616Z,89.70
2023-03-10T00:38:38.523Z,90.57
2023-03-10T00:41:08.481Z,91.07
2023-03-10T00:43:36.877Z,92.43
2023-03-10T00:46:06.041Z,90.67
2023-03-10T00:48:34.262Z,92.80
2023-03-10T00:51:02.309Z,87.10
2023-03-10T00:53:30.610Z,89.50
2023-03-10T00:56:02.261Z,92.87
2023-03-10T00:58:31.405Z,90.23
2023-03-10T01:01:00.035Z,90.77
2023-03-10T01:03:29.282Z,91.97
2023-03-10T01:05:58.424Z,91.00
2023-03-10T01:08:26.565Z,89.37
2023-03-10T01:10:54.757Z,94.80
2023-03-10T01:13:24.197Z,94.70
2023-03-10T01:15:52.231Z,93.00
2023-03-10T01:18:21.403Z,92.67
2023-03-10T01:20:49.945Z,92.87
2023-03-10T01:23:20.968Z,91.53
2023-03-10T01:25:49.499Z,91.80
2023-03-10T01:28:19.692Z,90.57
2023-03-10T01:30:49.851Z,91.83
2023-03-10T01:33:18.642Z,91.97
2023-03-10T01:35:46.997Z,89.27
2023-03-10T01:38:15.135Z,86.53
2023-03-10T01:40:49.852Z,93.03
2023-03-10T01:43:42.813Z,91.50
2023-03-10T01:46:40.714Z,89.83
2023-03-10T01:49:22.608Z,87.83
2023-03-10T01:51:56.079Z,88.77
2023-03-10T01:54:26.863Z,91.03
2023-03-10T01:56:57.229Z,88.60
2023-03-10T01:59:26.994Z,86.13
2023-03-10T02:01:57.609Z,89.77
2023-03-10T02:04:33.291Z,94.17
2023-03-10T02:07:03.419Z,94.90
2023-03-10T02:09:32.032Z,93.03
2023-03-10T02:12:01.492Z,92.20
2023-03-10T02:14:31.760Z,90.60
2023-03-10T02:17:01.225Z,91.43
2023-03-10T02:19:59.222Z,91.93
2023-03-10T02:22:27.653Z,90.83
2023-03-10T02:25:04.684Z,89.67
2023-03-10T02:27:37.677Z,92.80
2023-03-10T02:30:10.526Z,90.70
2023-03-10T02:32:43.106Z,93.27
2023-03-10T02:35:12.417Z,92.40
2023-03-10T02:37:40.749Z,91.80
2023-03-10T02:40:29.750Z,90.60
2023-03-10T02:42:59.696Z,92.20
2023-03-10T02:45:30.960Z,93.03
2023-03-10T02:47:59.096Z,94.33
2023-03-10T02:50:29.589Z,94.57
2023-03-10T02:53:04.829Z,94.00
2023-03-10T02:55:32.865Z,95.67
2023-03-10T02:58:02.502Z,93.23
2023-03-10T03:00:30.860Z,96.17
2023-03-10T03:02:59.038Z,94.13
2023-03-10T03:05:27.114Z,96.37
2023-03-10T03:07:55.189Z,90.10
2023-03-10T03:10:23.329Z,95.23
2023-03-10T03:12:51.477Z,94.90
2023-03-10T03:15:20.971Z,91.83
2023-03-10T03:17:49.164Z,93.73
2023-03-10T03:20:17.680Z,90.80
2023-03-10T03:22:46.974Z,92.33
2023-03-10T03:25:17.137Z,92.70
2023-03-10T03:27:45.402Z,94.80
2023-03-10T03:30:16.750Z,91.00
2023-03-10T03:32:46.242Z,89.37
2023-03-10T03:35:17.957Z,90.60
2023-03-10T03:37:46.585Z,92.53
2023-03-10T03:40:15.602Z,92.93
2023-03-10T03:42:45.520Z,95.57
2023-03-10T03:45:15.882Z,92.30
2023-03-10T03:47:46.085Z,93.13
2023-03-10T03:50:16.260Z,93.80
2023-03-10T03:52:47.049Z,92.20
2023-03-10T03:55:17.770Z,94.30
2023-03-10T03:57:47.054Z,94.00
2023-03-10T04:00:18.480Z,91.00
2023-03-10T04:02:47.935Z,89.90
2023-03-10T04:05:16.113Z,94.17
2023-03-10T04:07:44.708Z,95.10
2023-03-10T04:10:15.955Z,93.77
2023-03-10T04:12:44.067Z,94.80
2023-03-10T04:15:13.070Z,97.07
2023-03-10T04:17:41.699Z,96.57
2023-03-10T04:20:13.630Z,99.90
2023-03-10T04:22:42.058Z,100.23
2023-03-10T04:25:10.926Z,99.77
2023-03-10T04:27:39.050Z,95.43
2023-03-10T04:30:08.442Z,93.93
2023-03-10T04:32:36.563Z,92.43
2023-03-10T04:35:05.305Z,91.87
2023-03-10T04:37:34.766Z,95.27
2023-03-10T04:40:07.989Z,93.57
2023-03-10T04:42:36.295Z,92.27
2023-03-10T04:45:05.182Z,91.83
2023-03-10T04:47:33.436Z,95.17
2023-03-10T04:50:01.689Z,95.93
2023-03-10T04:52:29.852Z,94.90
2023-03-10T04:54:59.220Z,93.40
2023-03-10T04:57:27.342Z,93.40
2023-03-10T04:59:55.641Z,95.27
2023-03-10T05:02:24.705Z,93.03
2023-03-10T05:04:52.860Z,91.47
2023-03-10T05:07:21.428Z,94.63
2023-03-10T05:09:49.552Z,91.20
2023-03-10T05:12:19.006Z,88.10
2023-03-10T05:14:47.247Z,88.83
2023-03-10T05:17:16.419Z,90.70
2023-03-10T05:19:44.599Z,88.57
2023-03-10T05:22:12.691Z,89.17
2023-03-10T05:24:40.777Z,88.17
2023-03-10T05:27:10.436Z,87.83
2023-03-10T05:29:40.766Z,85.80
2023-03-10T05:32:09.106Z,87.03
2023-03-10T05:34:37.369Z,82.97
2023-03-10T05:37:05.576Z,82.37
2023-03-10T05:39:33.622Z,80.20
2023-03-10T05:42:01.838Z,79.17
2023-03-10T05:44:29.965Z,81.13
2023-03-10T05:46:59.410Z,80.60
2023-03-10T05:49:27.700Z,78.37
2023-03-10T05:51:55.775Z,84.67
2023-03-10T05:54:23.858Z,82.27
2023-03-10T05:56:52.046Z,77.20
2023-03-10T05:59:20.112Z,77.90
2023-03-10T06:01:48.206Z,80.10
2023-03-10T06:04:17.634Z,83.40
2023-03-10T06:06:45.737Z,87.13
2023-03-10T06:09:13.833Z,78.37
2023-03-10T06:11:41.908Z,84.93
2023-03-10T06:14:10.665Z,84.80
2023-03-10T06:16:38.792Z,81.00
2023-03-10T06:19:06.985Z,82.57
2023-03-10T06:21:36.342Z,84.13
2023-03-10T06:24:04.633Z,80.63
2023-03-10T06:26:32.809Z,75.00
2023-03-10T06:29:01.687Z,78.87
2023-03-10T06:31:29.925Z,78.37
2023-03-10T06:33:59.283Z,78.93
2023-03-10T06:36:31.559Z,78.73
2023-03-10T06:39:00.952Z,80.20
2023-03-10T06:41:29.042Z,84.10
2023-03-10T06:43:57.075Z,77.43
2023-03-10T06:46:26.487Z,81.10
2023-03-10T06:48:54.651Z,85.07
2023-03-10T06:51:23.795Z,79.40
2023-03-10T06:53:51.726Z,82.30
2023-03-10T06:56:22.722Z,87.13
2023-03-10T06:58:51.010Z,88.20
2023-03-10T07:01:24.714Z,92.43
2023-03-10T07:03:52.984Z,90.73
2023-03-10T07:06:21.277Z,87.40
2023-03-10T07:08:49.663Z,80.30
2023-03-10T07:11:18.259Z,83.93
2023-03-10T07:13:47.905Z,86.47
2023-03-10T07:16:16.097Z,83.50
2023-03-10T07:18:44.974Z,81.67
2023-03-10T07:21:16.525Z,85.73
2023-03-10T07:23:44.552Z,88.77
2023-03-10T07:26:14.848Z,83.83
2023-03-10T07:28:43.245Z,82.67
2023-03-10T07:31:15.064Z,80.90
2023-03-10T07:33:43.265Z,81.90
2023-03-10T07:36:13.654Z,83.90
2023-03-10T07:38:42.110Z,81.67
2023-03-10T07:41:11.910Z,91.27
2023-03-10T07:43:40.194Z,89.50
2023-03-10T07:46:10.404Z,89.30
2023-03-10T07:48:40.245Z,85.33
2023-03-10T07:51:08.848Z,77.20
2023-03-10T07:53:36.840Z,84.43
2023-03-10T07:56:06.449Z,76.33
2023-03-10T07:58:35.612Z,83.20
2023-03-10T08:01:04.577Z,85.93
2023-03-10T08:03:34.147Z,86.10
2023-03-10T08:06:05.538Z,82.13
2023-03-10T08:08:33.948Z,82.40
2023-03-10T08:11:03.831Z,81.57
2023-03-10T08:13:32.065Z,82.60
2023-03-10T08:16:01.554Z,83.03
2023-03-10T08:18:31.462Z,85.00
2023-03-10T08:21:00.350Z,82.70
2023-03-10T08:23:29.749Z,80.73
2023-03-10T08:26:01.345Z,77.80
2023-03-10T08:28:30.653Z,77.77
2023-03-10T08:31:05.284Z,78.07
2023-03-10T08:33:34.371Z,77.00
2023-03-10T08:36:04.288Z,77.60
2023-03-10T08:38:34.021Z,76.10
2023-03-10T08:41:10.852Z,77.40
2023-03-10T08:43:39.066Z,75.40
2023-03-10T08:46:08.856Z,75.37
2023-03-10T08:48:37.336Z,77.27
2023-03-10T08:51:06.897Z,76.63
2023-03-10T08:53:37.701Z,74.07
2023-03-10T08:56:06.706Z,74.03
2023-03-10T08:58:35.194Z,75.30
2023-03-10T09:01:03.309Z,74.07
2023-03-10T09:03:32.039Z,76.57
2023-03-10T09:06:00.363Z,79.23
2023-03-10T09:08:28.468Z,81.10
2023-03-10T09:10:58.005Z,77.40
2023-03-10T09:13:26.125Z,78.97
2023-03-10T09:15:54.225Z,78.37
2023-03-10T09:18:22.413Z,79.40
2023-03-10T09:20:50.771Z,79.73
2023-03-10T09:23:19.279Z,83.37
2023-03-10T09:25:47.814Z,84.10
2023-03-10T09:28:18.736Z,86.30
2023-03-10T09:30:48.207Z,85.50
2023-03-10T09:33:18.619Z,85.87
2023-03-10T09:35:52.771Z,91.27
2023-03-10T09:38:21.160Z,90.00
2023-03-10T09:40:55.649Z,85.67
2023-03-10T09:43:26.082Z,85.20
2023-03-10T09:45:58.841Z,78.70
2023-03-10T09:48:50.199Z,78.87
2023-03-10T09:51:22.649Z,78.60
2023-03-10T09:54:11.606Z,77.43
2023-03-10T09:56:39.992Z,76.83
2023-03-10T09:59:15.092Z,80.83
2023-03-10T10:01:48.477Z,76.17
2023-03-10T10:04:21.516Z,71.37
2023-03-10T10:06:51.406Z,74.83
2023-03-10T10:09:28.924Z,69.27
2023-03-10T10:11:57.803Z,76.80
2023-03-10T10:14:31.484Z,71.50
2023-03-10T10:17:06.424Z,70.87
2023-03-10T10:19:37.065Z,72.43
2023-03-10T10:22:14.704Z,72.00
2023-03-10T10:24:43.881Z,73.50
2023-03-10T10:27:17.787Z,75.23
2023-03-10T10:29:48.825Z,76.50
2023-03-10T10:32:18.252Z,76.07
2023-03-10T10:34:47.565Z,75.30
2023-03-10T10:37:28.067Z,79.20
2023-03-10T10:39:57.610Z,81.47
2023-03-10T10:42:26.984Z,81.50
2023-03-10T10:44:58.559Z,80.37
2023-03-10T10:47:29.762Z,76.47
2023-03-10T10:50:22.423Z,71.13
2023-03-10T10:52:53.185Z,70.90
2023-03-10T10:55:28.211Z,70.53
2023-03-10T10:58:01.302Z,72.30
2023-03-10T11:00:33.475Z,73.00
2023-03-10T11:03:01.846Z,69.57
2023-03-10T11:05:36.078Z,66.70
2023-03-10T11:08:18.799Z,69.40
2023-03-10T11:10:56.001Z,72.23
2023-03-10T11:13:30.346Z,71.90
2023-03-10T11:16:07.747Z,69.50
2023-03-10T11:18:39.566Z,60.80
2023-03-10T11:21:13.781Z,62.60
2023-03-10T11:23:46.527Z,63.30
2023-03-10T11:26:22.533Z,63.90
2023-03-10T11:28:57.843Z,63.47
2023-03-10T11:31:40.152Z,63.50
2023-03-10T11:34:20.343Z,58.03
2023-03-10T11:36:58.396Z,59.70
2023-03-10T11:39:38.992Z,58.73
2023-03-10T11:42:15.232Z,59.50
2023-03-10T11:44:49.199Z,57.80
2023-03-10T11:47:25.451Z,58.70
2023-03-10T11:50:01.171Z,61.80
2023-03-10T11:52:31.325Z,59.10
2023-03-10T11:55:06.885Z,57.57
2023-03-10T11:57:40.621Z,61.07
2023-03-10T12:00:21.310Z,56.90
2023-03-10T12:03:05.335Z,56.17
2023-03-10T12:05:43.507Z,53.20
2023-03-10T12:08:13.667Z,52.77
2023-03-10T12:10:43.051Z,51.87
2023-03-10T12:13:24.374Z,52.23
2023-03-10T12:15:56.472Z,49.80
2023-03-10T12:18:27.040Z,51.23
2023-03-10T12:21:19.890Z,51.53
2023-03-10T12:23:49.445Z,53.77
2023-03-10T12:26:56.232Z,55.37
2023-03-10T12:29:32.736Z,57.07
2023-03-10T12:32:01.245Z,55.03
2023-03-10T12:34:32.444Z,56.40
2023-03-10T12:37:09.567Z,56.00
2023-03-10T12:39:40.887Z,56.23
2023-03-10T12:42:30.079Z,56.83
2023-03-10T12:45:18.038Z,57.90
2023-03-10T12:47:56.614Z,53.50
2023-03-10T12:50:35.742Z,55.20
2023-03-10T12:53:22.192Z,55.60
2023-03-10T12:56:19.506Z,58.17
2023-03-10T12:58:50.041Z,58.57
2023-03-10T13:01:23.094Z,55.70
2023-03-10T13:03:53.822Z,53.83
2023-03-10T13:06:25.462Z,53.30
2023-03-10T13:08:58.606Z,49.00
2023-03-10T13:11:36.602Z,51.53
2023-03-10T13:14:10.911Z,52.83
2023-03-10T13:16:39.248Z,55.30
2023-03-10T13:19:07.633Z,49.77
2023-03-10T13:21:39.926Z,47.33
2023-03-10T13:24:24.628Z,48.40
2023-03-10T13:27:08.077Z,49.80
2023-03-10T13:29:36.302Z,47.70
2023-03-10T13:32:04.901Z,47.17
2023-03-10T13:34:34.701Z,46.67
2023-03-10T13:37:06.216Z,46.20
2023-03-10T13:39:34.705Z,46.87
2023-03-10T13:42:05.519Z,50.03
2023-03-10T13:44:38.786Z,52.30
2023-03-10T13:47:18.106Z,51.10
2023-03-10T13:49:51.691Z,47.60
2023-03-10T13:52:25.406Z,49.33
2023-03-10T13:55:07.702Z,49.17
2023-03-10T13:57:39.082Z,50.97
2023-03-10T14:00:14.573Z,49.47
2023-03-10T14:02:46.032Z,48.97
2023-03-10T14:05:40.139Z,48.23
2023-03-10T14:08:22.798Z,49.57
2023-03-10T14:10:52.989Z,50.07
2023-03-10T14:13:45.107Z,50.70
2023-03-10T14:16:15.043Z,52.70
2023-03-10T14:18:45.616Z,53.77
2023-03-10T14:21:34.626Z,54.70
2023-03-10T14:24:15.440Z,58.10
2023-03-10T14:26:45.890Z,58.33
2023-03-10T14:29:17.998Z,59.80
2023-03-10T14:31:53.239Z,59.90
2023-03-10T14:34:22.497Z,59.90
2023-03-10T14:36:52.209Z,61.20
2023-03-10T14:39:21.777Z,63.30
2023-03-10T14:41:52.677Z,65.73
2023-03-10T14:44:20.835Z,67.40
2023-03-10T14:46:53.712Z,71.40
2023-03-10T14:49:24.758Z,73.90
2023-03-10T14:51:53.091Z,72.47
2023-03-10T14:54:24.600Z,74.70
2023-03-10T14:56:59.170Z,74.20
2023-03-10T14:59:28.922Z,75.80
2023-03-10T15:01:58.146Z,73.23
2023-03-10T15:04:26.407Z,77.77
2023-03-10T15:06:54.688Z,78.40
2023-03-10T15:09:24.124Z,74.33
2023-03-10T15:11:52.224Z,78.77
2023-03-10T15:14:20.870Z,77.43
2023-03-10T15:16:48.974Z,74.57
2023-03-10T15:19:20.841Z,74.77
2023-03-10T15:21:49.147Z,78.63
2023-03-10T15:24:17.335Z,78.63
2023-03-10T15:26:48.191Z,77.40
2023-03-10T15:29:18.270Z,75.50
2023-03-10T15:31:46.556Z,78.27
2023-03-10T15:34:14.674Z,80.47
2023-03-10T15:36:42.887Z,75.47
2023-03-10T15:39:14.274Z,79.50
2023-03-10T15:41:48.319Z,83.60
2023-03-10T15:44:16.346Z,83.90
2023-03-10T15:46:45.991Z,84.83
2023-03-10T15:49:14.056Z,85.50
2023-03-10T15:51:42.143Z,87.47
2023-03-10T15:54:12.438Z,81.97
2023-03-10T15:56:41.333Z,81.70
2023-03-10T15:59:11.089Z,79.93
2023-03-10T16:01:39.325Z,81.03
2023-03-10T16:04:07.449Z,81.67
2023-03-10T16:06:35.976Z,82.57
2023-03-10T16:09:04.620Z,86.17
2023-03-10T16:11:32.791Z,83.27
2023-03-10T16:14:00.949Z,81.93
2023-03-10T16:16:30.713Z,80.80
2023-03-10T16:18:58.788Z,83.30
2023-03-10T16:21:27.754Z,83.00
2023-03-10T16:23:55.915Z,83.87
2023-03-10T16:26:25.000Z,85.87
2023-03-10T16:28:54.823Z,91.43
2023-03-10T16:31:24.433Z,84.37
2023-03-10T16:33:54.742Z,89.40
2023-03-10T16:36:25.435Z,84.33
2023-03-10T16:38:54.491Z,84.90
2023-03-10T16:41:23.496Z,93.37
2023-03-10T16:43:51.634Z,97.77
2023-03-10T16:46:25.434Z,89.03
2023-03-10T16:48:55.974Z,93.53
2023-03-10T16:51:28.330Z,91.17
2023-03-10T16:53:58.825Z,92.07
2023-03-10T16:56:29.039Z,89.80
2023-03-10T16:58:58.016Z,89.83
2023-03-10T17:01:27.023Z,88.53
2023-03-10T17:03:56.853Z,84.60
2023-03-10T17:06:27.680Z,87.87
2023-03-10T17:08:56.497Z,80.87
2023-03-10T17:11:26.277Z,80.70
2023-03-10T17:13:56.096Z,80.93
2023-03-10T17:16:28.480Z,78.63
2023-03-10T17:19:00.384Z,79.50
2023-03-10T17:21:32.683Z,81.40
2023-03-10T17:24:01.799Z,78.90
2023-03-10T17:26:29.997Z,77.90
2023-03-10T17:28:58.073Z,76.77
2023-03-10T17:31:28.830Z,79.77
2023-03-10T17:34:00.206Z,77.40
2023-03-10T17:36:29.040Z,74.17
2023-03-10T17:38:59.044Z,73.97
2023-03-10T17:41:28.325Z,75.53
2023-03-10T17:43:57.314Z,75.00
2023-03-10T17:46:27.681Z,77.97
2023-03-10T17:48:56.544Z,76.57
2023-03-10T17:51:27.810Z,75.27
2023-03-10T17:53:58.262Z,73.63
2023-03-10T17:56:26.643Z,76.07
2023-03-10T17:58:55.187Z,73.70
2023-03-10T18:01:26.554Z,76.00
2023-03-10T18:03:56.030Z,76.30
2023-03-10T18:06:27.309Z,75.17
2023-03-10T18:08:56.629Z,81.17
2023-03-10T18:11:25.661Z,77.70
2023-03-10T18:13:54.113Z,79.40
2023-03-10T18:16:24.504Z,79.73
2023-03-10T18:18:53.166Z,76.53
2023-03-10T18:21:22.106Z,76.20
2023-03-10T18:23:52.707Z,76.37
2023-03-10T18:26:23.054Z,79.20
2023-03-10T18:28:51.176Z,80.17
2023-03-10T18:31:22.167Z,80.33
2023-03-10T18:33:50.723Z,84.83
2023-03-10T18:36:20.637Z,81.13
2023-03-10T18:38:49.074Z,80.63
2023-03-10T18:41:21.845Z,83.67
2023-03-10T18:43:49.955Z,81.43
2023-03-10T18:46:18.169Z,80.87
2023-03-10T18:48:46.255Z,76.43
2023-03-10T18:51:14.661Z,80.47
2023-03-10T18:53:42.668Z,83.60
2023-03-10T18:56:11.455Z,82.33
2023-03-10T18:58:40.919Z,84.33
2023-03-10T19:01:12.088Z,82.40
2023-03-10T19:03:40.235Z,79.90
2023-03-10T19:06:09.606Z,80.90
2023-03-10T19:08:38.795Z,77.50
2023-03-10T19:11:07.764Z,77.57
2023-03-10T19:13:40.361Z,77.47
2023-03-10T19:16:11.643Z,81.83
2023-03-10T19:18:40.318Z,80.40
2023-03-10T19:21:09.488Z,79.33
2023-03-10T19:23:38.017Z,79.33
2023-03-10T19:26:06.981Z,80.23
2023-03-10T19:28:35.032Z,77.80
2023-03-10T19:31:08.443Z,77.57
2023-03-10T19:33:39.751Z,75.60
2023-03-10T19:36:11.928Z,77.73
2023-03-10T19:38:41.757Z,80.20
2023-03-10T19:41:13.512Z,79.30
2023-03-10T19:43:41.597Z,80.03
2023-03-10T19:46:12.669Z,79.33
2023-03-10T19:48:42.937Z,79.93
2023-03-10T19:51:20.124Z,76.30
2023-03-10T19:53:48.106Z,77.30
2023-03-10T19:56:18.521Z,76.60
2023-03-10T19:58:47.102Z,75.13
2023-03-10T20:01:16.250Z,76.03
2023-03-10T20:03:46.495Z,76.27
2023-03-10T20:06:14.626Z,74.83
2023-03-10T20:08:42.735Z,73.70
2023-03-10T20:11:13.540Z,73.20
2023-03-10T20:13:43.251Z,75.87
2023-03-10T20:16:13.419Z,75.60
2023-03-10T20:18:42.150Z,76.73
2023-03-10T20:21:11.776Z,77.13
2023-03-10T20:23:40.017Z,75.13
2023-03-10T20:26:10.869Z,76.70
2023-03-10T20:28:39.820Z,73.17
2023-03-10T20:31:08.928Z,75.33
2023-03-10T20:33:37.984Z,73.77
2023-03-10T20:36:08.598Z,74.33
2023-03-10T20:38:38.477Z,76.20
2023-03-10T20:41:06.549Z,75.37
2023-03-10T20:43:34.885Z,75.87
2023-03-10T20:46:03.073Z,74.50
2023-03-10T20:48:31.308Z,74.57
2023-03-10T20:51:01.786Z,76.70
2023-03-10T20:53:32.110Z,73.73
2023-03-10T20:56:02.044Z,75.10
2023-03-10T20:58:30.188Z,73.80
2023-03-10T21:00:58.341Z,74.33
2023-03-10T21:03:27.252Z,75.00
2023-03-10T21:05:55.459Z,71.97
2023-03-10T21:08:23.703Z,73.57
2023-03-10T21:10:52.206Z,72.80
2023-03-10T21:13:21.843Z,70.70
2023-03-10T21:15:49.987Z,72.43
2023-03-10T21:18:18.292Z,69.70
2023-03-10T21:20:46.433Z,71.00
2023-03-10T21:23:14.543Z,73.00
2023-03-10T21:25:42.701Z,73.77
2023-03-10T21:28:11.105Z,74.57
2023-03-10T21:30:40.694Z,73.40
2023-03-10T21:33:09.019Z,74.07
2023-03-10T21:35:40.436Z,75.07
2023-03-10T21:38:08.612Z,77.83
2023-03-10T21:40:36.718Z,79.17
2023-03-10T21:43:04.761Z,79.30
2023-03-10T21:45:34.157Z,78.10
2023-03-10T21:48:04.706Z,75.67
2023-03-10T21:50:33.188Z,79.20
2023-03-10T21:53:01.742Z,79.70
2023-03-10T21:55:30.869Z,79.30
2023-03-10T21:57:59.147Z,78.00
2023-03-10T22:00:27.989Z,79.30
2023-03-10T22:02:56.061Z,79.23
2023-03-10T22:05:25.678Z,78.27
2023-03-10T22:07:56.988Z,78.37
2023-03-10T22:10:25.181Z,80.37
2023-03-10T22:12:53.344Z,80.70
2023-03-10T22:15:23.411Z,79.17
2023-03-10T22:17:52.524Z,81.27
2023-03-10T22:20:23.018Z,81.67
2023-03-10T22:22:54.412Z,83.90
2023-03-10T22:25:22.734Z,83.23
2023-03-10T22:27:52.522Z,85.30
2023-03-10T22:30:21.439Z,83.83
2023-03-10T22:32:50.201Z,82.97
2023-03-10T22:35:19.550Z,81.07
2023-03-10T22:37:48.254Z,83.70
2023-03-10T22:40:19.836Z,81.20
2023-03-10T22:42:48.210Z,84.27
2023-03-10T22:45:19.408Z,84.83
2023-03-10T22:47:48.078Z,84.23
2023-03-10T22:50:18.919Z,84.70
2023-03-10T22:52:47.042Z,84.50
2023-03-10T22:55:18.168Z,82.73
2023-03-10T22:57:46.238Z,83.40
2023-03-10T23:00:19.422Z,84.37
2023-03-10T23:02:48.268Z,84.00
2023-03-10T23:05:17.070Z,84.53
2023-03-10T23:07:45.774Z,84.30
2023-03-10T23:10:19.505Z,85.37
2023-03-10T23:12:47.709Z,84.77
2023-03-10T23:15:24.828Z,85.73
2023-03-10T23:17:54.269Z,87.43
2023-03-10T23:20:24.175Z,87.20
2023-03-10T23:22:52.512Z,85.83
2023-03-10T23:25:25.771Z,85.00
2023-03-10T23:27:53.886Z,85.17
2023-03-10T23:30:22.073Z,83.23
2023-03-10T23:32:51.761Z,81.00
2023-03-10T23:35:25.813Z,80.57
2023-03-10T23:37:54.283Z,80.80
2023-03-10T23:40:27.062Z,79.03
2023-03-10T23:42:55.643Z,80.20
2023-03-10T23:45:25.074Z,78.17
2023-03-10T23:47:55.473Z,75.47
2023-03-10T23:50:26.256Z,74.70
2023-03-10T23:52:54.722Z,74.67
2023-03-10T23:55:26.910Z,76.30
2023-03-10T23:57:55.418Z,74.13
